Pemberville, Ohio
Current Conditions -  °F | °C
As of 1:53 PM on Friday 31 Oct 2014 (Local Time) from KTDZ Reporting Station
Light Rain Light Rain  
Wind Chill: 40°   Ceiling: 2200
Heat Index: 44°   Visibility: 7mi
Dew Point: 39°   Wind: 8mph
Humidity: 82%   Direction: 320°NW
Pressure: 29.88"   Gusts: NA
Location:  41.41°N, 83.46°W
Report Text: KTDZ 311753Z AUTO 32007KT 7SM -RA FEW012 BKN022 OVC029 07/04 A2988 RMK AO2 RAB1659E08B32 SLP120 P0000 60007 T00670039 10072 20061 58005 TSNO
Loading
Personal Weather Stations






























Interactive Weather Map
Tropical Storm Tracking
New forecast layout! Learn more

10-Day Weather Forecast

Advertisements
Track Severe Weather on mobile